BVX117 YSCB-YSSY
Flight info
| Callsign | BVX117 |
|---|---|
| Flight time | 0h 46m |
| Altitude | 19000 |
| Route | CB W423 CULIN Y59 RIVET |
| Aircraft | B738/M-SDE2E3FGHIRWXY/LB1 |
Departure
| Time | 2026-05-04 10:30 |
|---|---|
| Airport | Canberra Airport (YSCB) |
Arrival
| Time | 2026-05-04 11:16 |
|---|---|
| Airport | Sydney Kingsford Smith International Airport (YSSY) |
| Time | Latitude | Longitude | Altitude | Speed | Heading |
|---|---|---|---|---|---|
| 2026-05-04 09:57 | -35.30653 | 149.19057 | 1878 ft | 0 kts | 220° |
| 2026-05-04 10:02 | -35.30533 | 149.18871 | 1875 ft | 0 kts | 178° |
| 2026-05-04 10:20 | -35.30526 | 149.18871 | 1874 ft | 4 kts | 178° |
| 2026-05-04 10:20 | -35.30499 | 149.18870 | 1875 ft | 4 kts | 178° |
| 2026-05-04 10:20 | -35.30472 | 149.18869 | 1876 ft | 4 kts | 178° |
| 2026-05-04 10:20 | -35.30459 | 149.18869 | 1878 ft | 1 kts | 178° |
| 2026-05-04 10:25 | -35.30527 | 149.19000 | 1881 ft | 9 kts | 127° |
| 2026-05-04 10:25 | -35.30566 | 149.19061 | 1879 ft | 10 kts | 129° |
| 2026-05-04 10:25 | -35.30615 | 149.19135 | 1881 ft | 13 kts | 129° |
| 2026-05-04 10:25 | -35.30686 | 149.19222 | 1881 ft | 16 kts | 150° |
| 2026-05-04 10:26 | -35.30804 | 149.19241 | 1883 ft | 18 kts | 182° |
| 2026-05-04 10:26 | -35.30940 | 149.19238 | 1880 ft | 20 kts | 180° |
| 2026-05-04 10:26 | -35.31075 | 149.19238 | 1877 ft | 19 kts | 180° |
| 2026-05-04 10:26 | -35.31206 | 149.19238 | 1876 ft | 18 kts | 180° |
| 2026-05-04 10:27 | -35.31330 | 149.19238 | 1871 ft | 16 kts | 180° |
| 2026-05-04 10:27 | -35.31432 | 149.19270 | 1872 ft | 15 kts | 142° |
| 2026-05-04 10:27 | -35.31461 | 149.19318 | 1872 ft | 0 kts | 112° |
| 2026-05-04 10:28 | -35.31463 | 149.19324 | 1872 ft | 3 kts | 109° |
| 2026-05-04 10:28 | -35.31469 | 149.19386 | 1873 ft | 10 kts | 86° |
| 2026-05-04 10:28 | -35.31429 | 149.19443 | 1874 ft | 10 kts | 8° |
| 2026-05-04 10:29 | -35.31405 | 149.19444 | 1874 ft | 0 kts | 0° |
| 2026-05-04 10:29 | -35.31214 | 149.19443 | 1876 ft | 63 kts | 359° |
| 2026-05-04 10:29 | -35.30545 | 149.19443 | 1880 ft | 127 kts | 0° |
| 2026-05-04 10:29 | -35.29514 | 149.19458 | 2001 ft | 169 kts | 1° |
| 2026-05-04 10:30 | -35.28321 | 149.19581 | 2751 ft | 173 kts | 2° |
| 2026-05-04 10:30 | -35.27089 | 149.19725 | 3542 ft | 178 kts | 359° |
| 2026-05-04 10:30 | -35.25779 | 149.19858 | 4005 ft | 203 kts | 359° |
| 2026-05-04 10:30 | -35.24287 | 149.20012 | 4231 ft | 228 kts | 359° |
| 2026-05-04 10:31 | -35.22670 | 149.20191 | 4692 ft | 239 kts | 359° |
| 2026-05-04 10:31 | -35.20985 | 149.20388 | 5305 ft | 244 kts | 359° |
| 2026-05-04 10:32 | -35.10585 | 149.21853 | 9875 ft | 254 kts | 10° |
| 2026-05-04 10:33 | -35.08902 | 149.22600 | 10034 ft | 259 kts | 13° |
| 2026-05-04 10:33 | -35.07218 | 149.23415 | 10084 ft | 262 kts | 13° |
| 2026-05-04 10:33 | -35.05520 | 149.24242 | 10090 ft | 262 kts | 13° |
| 2026-05-04 10:33 | -35.03827 | 149.25061 | 10099 ft | 261 kts | 13° |
| 2026-05-04 10:34 | -35.02136 | 149.25871 | 10097 ft | 261 kts | 13° |
| 2026-05-04 10:34 | -35.00444 | 149.26674 | 10099 ft | 261 kts | 13° |
| 2026-05-04 10:34 | -34.98756 | 149.27470 | 10103 ft | 260 kts | 13° |
| 2026-05-04 10:34 | -34.97054 | 149.28217 | 10127 ft | 258 kts | 5° |
| 2026-05-04 10:35 | -34.95303 | 149.28366 | 10601 ft | 257 kts | 354° |
| 2026-05-04 10:35 | -34.93513 | 149.28323 | 11398 ft | 258 kts | 353° |
| 2026-05-04 10:35 | -34.91707 | 149.28254 | 12185 ft | 262 kts | 352° |
| 2026-05-04 10:35 | -34.89862 | 149.28176 | 12957 ft | 268 kts | 352° |
| 2026-05-04 10:36 | -34.87981 | 149.28095 | 13748 ft | 273 kts | 352° |
| 2026-05-04 10:36 | -34.86068 | 149.28009 | 14520 ft | 277 kts | 352° |
| 2026-05-04 10:36 | -34.84141 | 149.27921 | 15349 ft | 278 kts | 352° |
| 2026-05-04 10:36 | -34.82202 | 149.27831 | 16165 ft | 280 kts | 352° |
| 2026-05-04 10:37 | -34.80245 | 149.27739 | 16974 ft | 283 kts | 352° |
| 2026-05-04 10:37 | -34.78267 | 149.27643 | 17784 ft | 286 kts | 352° |
| 2026-05-04 10:37 | -34.76266 | 149.27543 | 18549 ft | 289 kts | 352° |
| 2026-05-04 10:37 | -34.74259 | 149.27444 | 18954 ft | 290 kts | 352° |
| 2026-05-04 10:39 | -34.62046 | 149.26915 | 19112 ft | 296 kts | 352° |
| 2026-05-04 10:39 | -34.59985 | 149.26827 | 19117 ft | 296 kts | 352° |
| 2026-05-04 10:39 | -34.57927 | 149.26739 | 19109 ft | 296 kts | 352° |
| 2026-05-04 10:40 | -34.55865 | 149.27057 | 19096 ft | 310 kts | 14° |
| 2026-05-04 10:40 | -34.53925 | 149.28268 | 19119 ft | 314 kts | 19° |
| 2026-05-04 10:40 | -34.51972 | 149.29436 | 19122 ft | 311 kts | 16° |
| 2026-05-04 10:40 | -34.50009 | 149.30427 | 19102 ft | 309 kts | 13° |
| 2026-05-04 10:41 | -34.47997 | 149.31343 | 19108 ft | 308 kts | 12° |
| 2026-05-04 10:41 | -34.45984 | 149.32227 | 19112 ft | 308 kts | 12° |
| 2026-05-04 10:41 | -34.44060 | 149.33443 | 19101 ft | 323 kts | 32° |
| 2026-05-04 10:41 | -34.42536 | 149.35513 | 19122 ft | 337 kts | 48° |
| 2026-05-04 10:42 | -34.41469 | 149.38102 | 19121 ft | 347 kts | 59° |
| 2026-05-04 10:42 | -34.40578 | 149.40832 | 19112 ft | 350 kts | 61° |
| 2026-05-04 10:42 | -34.39716 | 149.43585 | 19105 ft | 350 kts | 61° |
| 2026-05-04 10:42 | -34.38857 | 149.46341 | 19111 ft | 350 kts | 61° |
| 2026-05-04 10:43 | -34.37991 | 149.49095 | 19106 ft | 350 kts | 61° |
| 2026-05-04 10:44 | -34.31785 | 149.68283 | 19097 ft | 350 kts | 60° |
| 2026-05-04 10:45 | -34.30892 | 149.71019 | 19106 ft | 350 kts | 60° |
| 2026-05-04 10:45 | -34.29999 | 149.73753 | 19096 ft | 350 kts | 60° |
| 2026-05-04 10:45 | -34.29103 | 149.76490 | 19097 ft | 349 kts | 60° |
| 2026-05-04 10:45 | -34.28221 | 149.79183 | 19099 ft | 349 kts | 60° |
| 2026-05-04 10:46 | -34.27327 | 149.81911 | 19083 ft | 351 kts | 60° |
| 2026-05-04 10:46 | -34.26384 | 149.84757 | 18857 ft | 379 kts | 61° |
| 2026-05-04 10:46 | -34.25366 | 149.87816 | 18661 ft | 405 kts | 62° |
| 2026-05-04 10:46 | -34.24290 | 149.91074 | 18450 ft | 429 kts | 62° |
| 2026-05-04 10:47 | -34.23164 | 149.94506 | 18033 ft | 446 kts | 63° |
| 2026-05-04 10:47 | -34.22037 | 149.97961 | 17339 ft | 441 kts | 63° |
| 2026-05-04 10:47 | -34.20918 | 150.01396 | 16655 ft | 434 kts | 63° |
| 2026-05-04 10:47 | -34.19813 | 150.04764 | 15981 ft | 428 kts | 62° |
| 2026-05-04 10:49 | -34.14097 | 150.28024 | 11417 ft | 400 kts | 71° |
| 2026-05-04 10:49 | -34.13414 | 150.31209 | 11245 ft | 384 kts | 70° |
| 2026-05-04 10:50 | -34.12753 | 150.34271 | 11055 ft | 370 kts | 70° |
| 2026-05-04 10:51 | -34.08646 | 150.53067 | 10048 ft | 300 kts | 70° |
| 2026-05-04 10:52 | -34.08126 | 150.55482 | 9781 ft | 297 kts | 70° |
| 2026-05-04 10:52 | -34.07611 | 150.57878 | 9485 ft | 295 kts | 70° |
| 2026-05-04 10:52 | -34.07097 | 150.60263 | 9187 ft | 293 kts | 70° |
| 2026-05-04 10:54 | -34.03562 | 150.76655 | 7190 ft | 286 kts | 69° |
| 2026-05-04 10:54 | -34.03060 | 150.78954 | 7029 ft | 280 kts | 68° |
| 2026-05-04 10:56 | -33.99764 | 150.92970 | 6994 ft | 240 kts | 67° |
| 2026-05-04 10:56 | -33.99307 | 150.94907 | 7007 ft | 242 kts | 67° |
| 2026-05-04 10:56 | -33.98849 | 150.96853 | 6994 ft | 241 kts | 66° |
| 2026-05-04 10:57 | -33.98424 | 150.98805 | 6987 ft | 242 kts | 72° |
| 2026-05-04 10:57 | -33.98201 | 151.00820 | 6987 ft | 246 kts | 85° |
| 2026-05-04 10:57 | -33.98661 | 151.02813 | 6994 ft | 252 kts | 119° |
| 2026-05-04 10:57 | -33.99920 | 151.04302 | 7016 ft | 260 kts | 153° |
| 2026-05-04 10:58 | -34.01638 | 151.04882 | 7002 ft | 256 kts | 185° |
| 2026-05-04 10:58 | -34.03322 | 151.04392 | 7006 ft | 245 kts | 217° |
| 2026-05-04 10:58 | -34.04536 | 151.03071 | 7004 ft | 231 kts | 236° |
| 2026-05-04 10:58 | -34.05866 | 151.01942 | 6994 ft | 243 kts | 204° |
| 2026-05-04 10:59 | -34.07584 | 151.01782 | 6989 ft | 258 kts | 171° |
| 2026-05-04 10:59 | -34.09217 | 151.02691 | 7007 ft | 264 kts | 139° |
| 2026-05-04 10:59 | -34.10294 | 151.04411 | 6982 ft | 262 kts | 107° |
| 2026-05-04 10:59 | -34.10728 | 151.06499 | 7001 ft | 254 kts | 94° |
| 2026-05-04 11:00 | -34.11014 | 151.08601 | 6984 ft | 253 kts | 93° |
| 2026-05-04 11:01 | -34.12874 | 151.22920 | 7002 ft | 252 kts | 93° |
| 2026-05-04 11:02 | -34.13131 | 151.25010 | 6993 ft | 251 kts | 93° |
| 2026-05-04 11:02 | -34.13385 | 151.27089 | 6982 ft | 250 kts | 93° |
| 2026-05-04 11:05 | -34.26143 | 151.46124 | 5315 ft | 276 kts | 183° |
| 2026-05-04 11:06 | -34.27994 | 151.45751 | 5051 ft | 266 kts | 210° |
| 2026-05-04 11:06 | -34.29389 | 151.44473 | 4830 ft | 249 kts | 240° |
| 2026-05-04 11:06 | -34.30043 | 151.42631 | 4532 ft | 235 kts | 270° |
| 2026-05-04 11:06 | -34.29860 | 151.40728 | 4203 ft | 224 kts | 290° |
| 2026-05-04 11:08 | -34.26446 | 151.28344 | 1984 ft | 213 kts | 297° |
| 2026-05-04 11:10 | -34.18054 | 151.24850 | 1982 ft | 163 kts | 347° |
| 2026-05-04 11:12 | -34.10274 | 151.22821 | 1998 ft | 156 kts | 347° |
| 2026-05-04 11:12 | -34.09250 | 151.22554 | 1986 ft | 147 kts | 347° |
| 2026-05-04 11:12 | -34.08265 | 151.22297 | 1979 ft | 144 kts | 349° |
| 2026-05-04 11:12 | -34.07306 | 151.22047 | 1984 ft | 139 kts | 349° |
| 2026-05-04 11:13 | -34.06395 | 151.21809 | 1869 ft | 134 kts | 347° |
| 2026-05-04 11:13 | -34.05481 | 151.21571 | 1714 ft | 135 kts | 348° |
| 2026-05-04 11:13 | -34.04557 | 151.21289 | 1550 ft | 138 kts | 346° |
| 2026-05-04 11:13 | -34.03616 | 151.21102 | 1355 ft | 137 kts | 352° |
| 2026-05-04 11:14 | -34.02700 | 151.20859 | 1174 ft | 135 kts | 347° |
| 2026-05-04 11:14 | -34.01781 | 151.20609 | 1002 ft | 138 kts | 347° |
| 2026-05-04 11:14 | -34.00811 | 151.20353 | 788 ft | 148 kts | 349° |
| 2026-05-04 11:16 | -33.95289 | 151.18844 | 27 ft | 37 kts | 323° |
| 2026-05-04 11:16 | -33.95153 | 151.18702 | 28 ft | 5 kts | 319° |
| 2026-05-04 11:16 | -33.95130 | 151.18677 | 29 ft | 5 kts | 319° |
| 2026-05-04 11:17 | -33.95098 | 151.18634 | 29 ft | 10 kts | 299° |
| 2026-05-04 11:17 | -33.95099 | 151.18527 | 29 ft | 17 kts | 254° |
| 2026-05-04 11:19 | -33.95166 | 151.18139 | 29 ft | 15 kts | 257° |
| 2026-05-04 11:19 | -33.95177 | 151.18074 | 29 ft | 1 kts | 259° |
| 2026-05-04 11:19 | -33.95182 | 151.18041 | 29 ft | 8 kts | 263° |
| 2026-05-04 11:19 | -33.95145 | 151.17958 | 29 ft | 16 kts | 330° |
| 2026-05-04 11:20 | -33.95067 | 151.17933 | 29 ft | 20 kts | 350° |
| 2026-05-04 11:20 | -33.94912 | 151.17895 | 29 ft | 25 kts | 348° |
| 2026-05-04 11:20 | -33.94696 | 151.17839 | 29 ft | 17 kts | 347° |
| 2026-05-04 11:20 | -33.94657 | 151.17829 | 29 ft | 0 kts | 347° |
| 2026-05-04 11:22 | -33.94024 | 151.17646 | 27 ft | 24 kts | 348° |
| 2026-05-04 11:22 | -33.93896 | 151.17620 | 28 ft | 8 kts | 14° |
| 2026-05-04 11:23 | -33.93857 | 151.17700 | 28 ft | 15 kts | 72° |
| 2026-05-04 11:23 | -33.93821 | 151.17855 | 29 ft | 23 kts | 74° |
| 2026-05-04 11:24 | -33.93675 | 151.17995 | 29 ft | 1 kts | 274° |
| 2026-05-04 11:25 | -33.93674 | 151.17984 | 29 ft | 2 kts | 276° |
| 2026-05-04 11:37 | -33.93675 | 151.17985 | 29 ft | 0 kts | 280° |